createdAt,value
2022-12-24T00:01:30.508Z,56.17
2022-12-24T00:03:57.812Z,57.90
2022-12-24T00:06:25.720Z,57.78
2022-12-24T00:08:53.182Z,57.92
2022-12-24T00:11:21.351Z,57.38
2022-12-24T00:13:49.223Z,56.55
2022-12-24T00:16:16.808Z,55.40
2022-12-24T00:18:46.728Z,56.38
2022-12-24T00:21:20.210Z,55.92
2022-12-24T00:23:47.774Z,55.28
2022-12-24T00:26:15.310Z,56.05
2022-12-24T00:28:42.640Z,57.15
2022-12-24T00:31:12.383Z,56.17
2022-12-24T00:33:39.984Z,53.58
2022-12-24T00:36:09.798Z,51.42
2022-12-24T00:38:37.635Z,52.72
2022-12-24T00:41:26.015Z,51.30
2022-12-24T00:44:02.406Z,50.58
2022-12-24T00:46:31.635Z,49.15
2022-12-24T00:48:59.513Z,49.88
2022-12-24T00:51:28.917Z,47.00
2022-12-24T00:53:57.168Z,48.55
2022-12-24T00:56:24.433Z,47.80
2022-12-24T00:58:52.158Z,46.58
2022-12-24T01:01:20.554Z,46.65
2022-12-24T01:03:51.192Z,49.03
2022-12-24T01:06:21.015Z,48.55
2022-12-24T01:08:52.234Z,47.55
2022-12-24T01:11:19.620Z,48.92
2022-12-24T01:13:47.051Z,49.35
2022-12-24T01:16:18.227Z,48.60
2022-12-24T01:18:45.666Z,48.75
2022-12-24T01:21:13.042Z,47.33
2022-12-24T01:23:40.911Z,48.78
2022-12-24T01:26:09.948Z,48.55
2022-12-24T01:28:40.202Z,49.05
2022-12-24T01:31:14.509Z,49.28
2022-12-24T01:33:42.683Z,47.45
2022-12-24T01:36:11.370Z,48.05
2022-12-24T01:38:41.711Z,48.08
2022-12-24T01:41:38.918Z,47.78
2022-12-24T01:44:36.150Z,48.42
2022-12-24T01:47:09.927Z,49.22
2022-12-24T01:49:42.286Z,49.20
2022-12-24T01:52:19.840Z,50.08
2022-12-24T01:55:00.845Z,49.88
2022-12-24T01:57:31.724Z,50.03
2022-12-24T02:00:05.107Z,50.20
2022-12-24T02:02:33.604Z,48.40
2022-12-24T02:05:22.556Z,49.83
2022-12-24T02:07:50.281Z,49.42
2022-12-24T02:10:18.294Z,49.03
2022-12-24T02:12:47.220Z,48.28
2022-12-24T02:15:17.307Z,49.10
2022-12-24T02:18:14.929Z,50.85
2022-12-24T02:21:09.274Z,49.90
2022-12-24T02:24:09.138Z,46.50
2022-12-24T02:27:23.877Z,46.70
2022-12-24T02:30:03.256Z,43.63
2022-12-24T02:32:36.721Z,40.88
2022-12-24T02:35:16.130Z,41.17
2022-12-24T02:37:58.076Z,40.58
2022-12-24T02:40:29.548Z,40.65
2022-12-24T02:43:01.199Z,38.65
2022-12-24T02:45:31.180Z,38.78
2022-12-24T02:47:59.990Z,37.85
2022-12-24T02:50:27.953Z,37.13
2022-12-24T02:52:55.324Z,37.08
2022-12-24T02:55:57.808Z,36.92
2022-12-24T02:58:42.010Z,37.22
2022-12-24T03:01:21.229Z,36.50
2022-12-24T03:03:54.920Z,37.83
2022-12-24T03:06:40.874Z,38.33
2022-12-24T03:09:19.141Z,37.43
2022-12-24T03:11:55.364Z,35.78
2022-12-24T03:14:23.499Z,33.45
2022-12-24T03:16:51.192Z,37.60
2022-12-24T03:19:20.345Z,35.38
2022-12-24T03:21:48.302Z,36.00
2022-12-24T03:24:15.669Z,36.83
2022-12-24T03:26:52.314Z,35.63
2022-12-24T03:29:20.507Z,37.10
2022-12-24T03:31:51.134Z,38.08
2022-12-24T03:34:19.139Z,36.65
2022-12-24T03:36:48.353Z,36.22
2022-12-24T03:39:16.041Z,34.80
2022-12-24T03:41:46.352Z,35.70
2022-12-24T03:44:13.611Z,35.40
2022-12-24T03:46:41.080Z,35.90
2022-12-24T03:49:08.647Z,35.85
2022-12-24T03:51:36.080Z,37.92
2022-12-24T03:54:03.456Z,36.63
2022-12-24T03:56:32.845Z,33.80
2022-12-24T03:59:00.273Z,34.92
2022-12-24T04:01:27.675Z,33.85
2022-12-24T04:03:55.883Z,34.72
2022-12-24T04:06:23.449Z,35.55
2022-12-24T04:08:50.725Z,33.50
2022-12-24T04:11:19.028Z,34.55
2022-12-24T04:13:46.574Z,34.17
2022-12-24T04:16:18.746Z,35.08
2022-12-24T04:18:46.011Z,36.33
2022-12-24T04:21:13.424Z,34.90
2022-12-24T04:23:42.374Z,36.05
2022-12-24T04:26:12.300Z,35.60
2022-12-24T04:28:41.258Z,34.47
2022-12-24T04:31:12.311Z,35.05
2022-12-24T04:33:39.951Z,36.38
2022-12-24T04:36:08.561Z,35.20
2022-12-24T04:38:35.840Z,34.58
2022-12-24T04:41:06.120Z,33.80
2022-12-24T04:43:34.039Z,31.65
2022-12-24T04:46:19.847Z,33.35
2022-12-24T04:48:49.489Z,31.10
2022-12-24T04:51:18.037Z,29.95
2022-12-24T04:53:48.294Z,31.63
2022-12-24T04:56:21.652Z,30.67
2022-12-24T04:58:49.536Z,30.48
2022-12-24T05:01:22.459Z,30.67
2022-12-24T05:03:51.200Z,30.40
2022-12-24T05:06:26.830Z,31.13
2022-12-24T05:08:55.724Z,32.10
2022-12-24T05:11:23.528Z,31.92
2022-12-24T05:13:51.632Z,32.45
2022-12-24T05:16:20.656Z,31.75
2022-12-24T05:18:48.739Z,33.75
2022-12-24T05:21:19.229Z,33.17
2022-12-24T05:24:05.182Z,35.40
2022-12-24T05:26:44.288Z,36.17
2022-12-24T05:29:12.472Z,35.40
2022-12-24T05:31:40.350Z,38.05
2022-12-24T05:34:09.032Z,36.85
2022-12-24T05:36:36.416Z,37.38
2022-12-24T05:39:05.411Z,36.95
2022-12-24T05:41:39.752Z,36.35
2022-12-24T05:44:07.238Z,40.33
2022-12-24T05:46:35.993Z,39.47
2022-12-24T05:49:03.634Z,40.60
2022-12-24T05:51:30.972Z,41.50
2022-12-24T05:53:58.364Z,41.60
2022-12-24T05:56:26.684Z,41.90
2022-12-24T05:58:57.138Z,40.60
2022-12-24T06:01:25.865Z,40.60
2022-12-24T06:03:53.667Z,39.55
2022-12-24T06:06:24.008Z,36.38
2022-12-24T06:08:53.177Z,39.38
2022-12-24T06:11:23.897Z,38.22
2022-12-24T06:13:52.537Z,37.75
2022-12-24T06:16:24.431Z,37.25
2022-12-24T06:18:52.337Z,37.20
2022-12-24T06:21:20.292Z,37.50
2022-12-24T06:23:50.954Z,38.38
2022-12-24T06:26:22.507Z,36.95
2022-12-24T06:28:51.183Z,36.92
2022-12-24T06:31:21.159Z,37.45
2022-12-24T06:33:49.916Z,37.13
2022-12-24T06:36:20.536Z,36.78
2022-12-24T06:38:50.043Z,37.88
2022-12-24T06:41:18.515Z,38.35
2022-12-24T06:43:47.109Z,38.53
2022-12-24T06:46:15.781Z,39.63
2022-12-24T06:48:44.841Z,40.40
2022-12-24T06:51:13.793Z,41.75
2022-12-24T06:53:41.804Z,40.00
2022-12-24T06:56:12.016Z,39.20
2022-12-24T06:58:40.848Z,40.38
2022-12-24T07:01:10.610Z,39.22
2022-12-24T07:03:38.308Z,39.63
2022-12-24T07:06:05.900Z,39.65
2022-12-24T07:08:34.108Z,38.92
2022-12-24T07:11:01.888Z,39.35
2022-12-24T07:13:29.373Z,41.75
2022-12-24T07:16:01.637Z,42.28
2022-12-24T07:18:31.743Z,42.65
2022-12-24T07:21:04.481Z,42.28
2022-12-24T07:23:32.253Z,43.10
2022-12-24T07:26:05.212Z,43.95
2022-12-24T07:28:34.857Z,42.05
2022-12-24T07:31:02.275Z,41.08
2022-12-24T07:33:30.167Z,43.55
2022-12-24T07:36:05.024Z,44.65
2022-12-24T07:38:33.651Z,42.47
2022-12-24T07:41:01.320Z,44.00
2022-12-24T07:43:29.012Z,41.45
2022-12-24T07:45:57.902Z,42.25
2022-12-24T07:48:30.298Z,40.63
2022-12-24T07:50:57.957Z,43.22
2022-12-24T07:53:27.551Z,42.03
2022-12-24T07:55:55.468Z,41.95
2022-12-24T07:58:23.733Z,41.15
2022-12-24T08:00:59.564Z,42.22
2022-12-24T08:03:27.814Z,42.20
2022-12-24T08:05:55.687Z,41.95
2022-12-24T08:08:23.295Z,42.25
2022-12-24T08:10:50.921Z,41.05
2022-12-24T08:13:20.427Z,40.78
2022-12-24T08:15:48.035Z,41.72
2022-12-24T08:18:17.572Z,42.08
2022-12-24T08:20:44.872Z,43.90
2022-12-24T08:23:12.469Z,43.63
2022-12-24T08:25:45.916Z,40.30
2022-12-24T08:28:14.872Z,40.05
2022-12-24T08:30:45.379Z,40.17
2022-12-24T08:33:12.609Z,39.88
2022-12-24T08:35:40.185Z,38.90
2022-12-24T08:38:07.496Z,40.70
2022-12-24T08:40:34.776Z,41.47
2022-12-24T08:43:02.895Z,41.83
2022-12-24T08:45:33.341Z,39.80
2022-12-24T08:48:08.889Z,39.75
2022-12-24T08:50:39.441Z,40.78
2022-12-24T08:53:06.870Z,41.25
2022-12-24T08:55:34.712Z,41.22
2022-12-24T08:58:02.279Z,42.25
2022-12-24T09:00:32.733Z,40.55
2022-12-24T09:03:00.181Z,40.80
2022-12-24T09:05:27.899Z,41.55
2022-12-24T09:07:55.112Z,40.97
2022-12-24T09:10:22.824Z,41.63
2022-12-24T09:12:51.265Z,42.00
2022-12-24T09:15:19.127Z,41.85
2022-12-24T09:17:46.404Z,41.60
2022-12-24T09:20:13.844Z,41.80
2022-12-24T09:22:41.225Z,42.17
2022-12-24T09:25:10.568Z,34.50
2022-12-24T09:27:38.494Z,39.70
2022-12-24T09:30:17.775Z,51.75
2022-12-24T09:32:45.138Z,41.10
2022-12-24T09:35:12.337Z,43.80
2022-12-24T09:37:39.571Z,44.25
2022-12-24T09:40:07.557Z,44.28
2022-12-24T09:42:52.511Z,46.08
2022-12-24T09:45:42.074Z,43.70
2022-12-24T09:48:13.270Z,44.95
2022-12-24T09:50:56.769Z,43.35
2022-12-24T09:53:45.863Z,43.47
2022-12-24T09:56:25.821Z,47.40
2022-12-24T09:59:01.940Z,45.20
2022-12-24T10:01:34.309Z,45.88
2022-12-24T10:04:15.564Z,47.22
2022-12-24T10:06:45.670Z,49.30
2022-12-24T10:09:35.157Z,51.95
2022-12-24T10:12:42.086Z,54.78
2022-12-24T10:15:29.012Z,55.45
2022-12-24T10:18:27.159Z,56.92
2022-12-24T10:21:13.499Z,57.33
2022-12-24T10:24:19.275Z,62.60
2022-12-24T10:26:55.296Z,63.08
2022-12-24T10:29:33.953Z,62.35
2022-12-24T10:32:10.386Z,61.50
2022-12-24T10:37:23.681Z,65.97
2022-12-24T10:39:52.185Z,67.57
2022-12-24T10:42:21.901Z,67.93
2022-12-24T10:44:57.228Z,67.18
2022-12-24T10:47:25.588Z,66.50
2022-12-24T10:50:31.185Z,66.85
2022-12-24T10:53:07.058Z,62.65
2022-12-24T10:55:34.365Z,62.08
2022-12-24T10:58:06.563Z,63.17
2022-12-24T11:00:36.479Z,60.47
2022-12-24T11:03:23.431Z,59.45
2022-12-24T11:06:04.993Z,59.33
2022-12-24T11:08:33.861Z,55.40
2022-12-24T11:11:07.396Z,57.45
2022-12-24T11:13:41.400Z,55.78
2022-12-24T11:16:18.417Z,54.65
2022-12-24T11:18:51.537Z,54.08
2022-12-24T11:21:34.677Z,55.65
2022-12-24T11:24:33.101Z,54.70
2022-12-24T11:27:23.155Z,53.45
2022-12-24T11:29:50.914Z,51.95
2022-12-24T11:32:21.514Z,56.42
2022-12-24T11:34:50.154Z,53.10
2022-12-24T11:37:21.951Z,55.50
2022-12-24T11:39:55.734Z,54.53
2022-12-24T11:42:38.436Z,54.30
2022-12-24T11:45:31.619Z,53.05
2022-12-24T11:48:00.032Z,50.70
2022-12-24T11:50:40.383Z,49.65
2022-12-24T11:53:30.871Z,54.22
2022-12-24T11:56:03.419Z,52.70
2022-12-24T11:58:49.236Z,52.58
2022-12-24T12:01:24.698Z,52.42
2022-12-24T12:03:57.375Z,52.40
2022-12-24T12:06:43.066Z,53.17
2022-12-24T12:09:46.277Z,55.15
2022-12-24T12:12:26.313Z,52.63
2022-12-24T12:15:11.445Z,52.17
2022-12-24T12:17:50.322Z,50.38
2022-12-24T12:20:46.257Z,54.88
2022-12-24T12:23:34.553Z,50.70
2022-12-24T12:26:11.344Z,51.80
2022-12-24T12:29:05.127Z,53.45
2022-12-24T12:31:35.968Z,55.58
2022-12-24T12:34:14.082Z,53.80
2022-12-24T12:36:53.154Z,53.47
2022-12-24T12:39:20.526Z,55.60
2022-12-24T12:42:21.705Z,58.15
2022-12-24T12:45:02.906Z,56.75
2022-12-24T12:48:12.233Z,57.53
2022-12-24T12:50:42.204Z,58.17
2022-12-24T12:53:18.283Z,60.28
2022-12-24T12:56:24.795Z,61.17
2022-12-24T12:58:55.034Z,60.47
2022-12-24T13:02:01.789Z,62.47
2022-12-24T13:04:44.332Z,60.03
2022-12-24T13:07:37.597Z,64.53
2022-12-24T13:10:23.852Z,66.13
2022-12-24T13:13:14.111Z,66.93
2022-12-24T13:16:14.259Z,65.25
2022-12-24T13:19:08.530Z,66.65
2022-12-24T13:21:35.989Z,65.43
2022-12-24T13:24:28.139Z,68.65
2022-12-24T13:27:07.451Z,65.50
2022-12-24T13:29:57.306Z,69.15
2022-12-24T13:32:24.514Z,63.50
2022-12-24T13:35:03.530Z,57.80
2022-12-24T13:37:30.759Z,58.67
2022-12-24T13:40:09.954Z,49.80
2022-12-24T13:42:47.222Z,55.03
2022-12-24T13:45:34.363Z,52.50
2022-12-24T13:48:07.872Z,52.28
2022-12-24T13:50:35.163Z,51.70
2022-12-24T13:53:03.100Z,49.95
2022-12-24T13:55:31.608Z,51.50
2022-12-24T13:58:04.243Z,51.78
2022-12-24T14:00:40.327Z,51.45
2022-12-24T14:03:14.171Z,52.50
2022-12-24T14:05:44.257Z,49.10
2022-12-24T14:08:16.685Z,51.55
2022-12-24T14:10:58.780Z,49.85
2022-12-24T14:13:38.093Z,50.25
2022-12-24T14:16:17.386Z,50.15
2022-12-24T14:18:57.696Z,52.22
2022-12-24T14:21:57.893Z,60.70
2022-12-24T14:24:28.207Z,57.45
2022-12-24T14:27:01.725Z,61.55
2022-12-24T14:29:33.979Z,53.25
2022-12-24T14:32:04.345Z,50.85
2022-12-24T14:34:32.079Z,52.13
2022-12-24T14:37:03.389Z,51.60
2022-12-24T14:39:32.422Z,52.60
2022-12-24T14:42:23.922Z,51.65
2022-12-24T14:45:05.417Z,51.85
2022-12-24T14:48:09.632Z,49.72
2022-12-24T14:50:45.256Z,52.40
2022-12-24T14:53:40.178Z,51.88
2022-12-24T14:56:22.524Z,50.90
2022-12-24T14:58:50.355Z,49.63
2022-12-24T15:01:26.938Z,52.63
2022-12-24T15:04:02.293Z,51.50
2022-12-24T15:06:35.236Z,51.63
2022-12-24T15:09:05.204Z,53.13
2022-12-24T15:11:32.765Z,53.35
2022-12-24T15:14:00.592Z,52.80
2022-12-24T15:16:34.252Z,53.95
2022-12-24T15:19:07.997Z,53.63
2022-12-24T15:21:41.345Z,53.58
2022-12-24T15:24:25.955Z,54.95
2022-12-24T15:26:54.469Z,58.83
2022-12-24T15:29:28.277Z,58.20
2022-12-24T15:32:00.558Z,53.63
2022-12-24T15:34:37.322Z,56.00
2022-12-24T15:37:13.493Z,53.05
2022-12-24T15:39:41.784Z,54.30
2022-12-24T15:42:14.413Z,53.72
2022-12-24T15:45:28.214Z,56.50
2022-12-24T15:48:00.219Z,59.45
2022-12-24T15:50:36.547Z,72.32
2022-12-24T15:53:33.187Z,68.32
2022-12-24T15:56:04.584Z,57.42
2022-12-24T15:58:45.353Z,68.70
2022-12-24T16:01:15.712Z,56.67
2022-12-24T16:03:52.150Z,56.75
2022-12-24T16:08:47.926Z,55.67
2022-12-24T16:11:23.666Z,58.15
2022-12-24T16:13:51.014Z,56.60
2022-12-24T16:16:21.136Z,57.20
2022-12-24T16:18:51.459Z,56.50
2022-12-24T16:21:38.873Z,56.95
2022-12-24T16:24:17.072Z,56.40
2022-12-24T16:26:44.594Z,56.10
2022-12-24T16:29:16.416Z,56.15
2022-12-24T16:31:51.436Z,55.13
2022-12-24T16:34:20.660Z,56.38
2022-12-24T16:36:48.025Z,58.65
2022-12-24T16:39:23.880Z,57.70
2022-12-24T16:42:14.805Z,56.72
2022-12-24T16:44:42.208Z,68.40
2022-12-24T16:47:19.491Z,68.80
2022-12-24T16:49:47.162Z,65.93
2022-12-24T16:52:22.131Z,62.03
2022-12-24T16:54:50.605Z,60.85
2022-12-24T16:57:19.401Z,60.95
2022-12-24T16:59:46.920Z,61.20
2022-12-24T17:02:16.982Z,61.28
2022-12-24T17:04:45.288Z,62.88
2022-12-24T17:07:14.876Z,62.15
2022-12-24T17:09:42.199Z,61.88
2022-12-24T17:12:10.294Z,60.00
2022-12-24T17:14:39.272Z,62.15
2022-12-24T17:17:06.573Z,62.17
2022-12-24T17:19:33.913Z,58.88
2022-12-24T17:22:01.265Z,62.38
2022-12-24T17:24:28.534Z,62.83
2022-12-24T17:26:55.853Z,65.43
2022-12-24T17:29:23.115Z,63.75
2022-12-24T17:31:51.429Z,66.47
2022-12-24T17:34:18.759Z,68.10
2022-12-24T17:36:46.689Z,66.90
2022-12-24T17:39:14.008Z,65.68
2022-12-24T17:41:41.775Z,67.88
2022-12-24T17:44:13.035Z,66.30
2022-12-24T17:46:41.227Z,69.10
2022-12-24T17:49:09.277Z,66.82
2022-12-24T17:51:40.235Z,67.95
2022-12-24T17:54:12.334Z,69.63
2022-12-24T17:56:39.605Z,69.82
2022-12-24T17:59:06.843Z,71.28
2022-12-24T18:01:37.099Z,68.28
2022-12-24T18:04:06.167Z,69.10
2022-12-24T18:06:33.667Z,67.32
2022-12-24T18:09:01.283Z,67.35
2022-12-24T18:11:32.808Z,67.43
2022-12-24T18:14:02.047Z,73.18
2022-12-24T18:16:32.996Z,69.68
2022-12-24T18:19:01.023Z,72.43
2022-12-24T18:21:30.609Z,65.13
2022-12-24T18:23:58.402Z,64.85
2022-12-24T18:26:28.935Z,64.47
2022-12-24T18:28:58.053Z,68.30
2022-12-24T18:31:26.858Z,64.85
2022-12-24T18:33:55.880Z,67.72
2022-12-24T18:36:23.805Z,64.32
2022-12-24T18:38:51.644Z,66.22
2022-12-24T18:41:22.796Z,69.22
2022-12-24T18:43:50.749Z,62.80
2022-12-24T18:46:21.386Z,62.75
2022-12-24T18:48:48.834Z,65.03
2022-12-24T18:51:17.443Z,63.30
2022-12-24T18:53:44.922Z,62.72
2022-12-24T18:56:23.299Z,65.18
2022-12-24T18:58:54.290Z,64.78
2022-12-24T19:01:27.522Z,67.90
2022-12-24T19:03:55.317Z,72.82
2022-12-24T19:06:23.540Z,73.65
2022-12-24T19:09:02.182Z,73.75
2022-12-24T19:11:31.548Z,73.95
2022-12-24T19:13:59.546Z,75.75
2022-12-24T19:16:28.824Z,75.80
2022-12-24T19:18:56.519Z,75.82
2022-12-24T19:21:24.319Z,79.15
2022-12-24T19:23:52.219Z,74.60
2022-12-24T19:26:20.707Z,74.75
2022-12-24T19:28:48.384Z,77.00
2022-12-24T19:31:18.877Z,75.45
2022-12-24T19:33:48.446Z,75.88
2022-12-24T19:36:18.614Z,79.20
2022-12-24T19:38:46.558Z,77.43
2022-12-24T19:41:28.658Z,74.82
2022-12-24T19:43:58.400Z,74.57
2022-12-24T19:46:28.612Z,72.55
2022-12-24T19:49:01.863Z,69.90
2022-12-24T19:51:29.839Z,72.78
2022-12-24T19:53:58.793Z,70.75
2022-12-24T19:56:28.497Z,68.05
2022-12-24T19:58:57.444Z,73.07
2022-12-24T20:01:27.603Z,63.08
2022-12-24T20:03:55.841Z,62.58
2022-12-24T20:06:26.156Z,58.90
2022-12-24T20:08:59.701Z,61.40
2022-12-24T20:11:27.332Z,71.88
2022-12-24T20:13:59.287Z,65.85
2022-12-24T20:16:27.663Z,55.42
2022-12-24T20:18:57.736Z,53.42
2022-12-24T20:21:25.713Z,53.35
2022-12-24T20:23:53.132Z,52.70
2022-12-24T20:26:22.483Z,51.40
2022-12-24T20:28:50.649Z,49.53
2022-12-24T20:31:29.425Z,51.67
2022-12-24T20:33:58.273Z,47.58
2022-12-24T20:36:27.059Z,46.05
2022-12-24T20:38:54.546Z,45.60
2022-12-24T20:41:24.294Z,46.35
2022-12-24T20:43:52.033Z,47.42
2022-12-24T20:46:21.831Z,48.90
2022-12-24T20:48:50.617Z,47.90
2022-12-24T20:51:25.432Z,44.97
2022-12-24T20:53:57.839Z,43.95
2022-12-24T20:56:27.843Z,40.78
2022-12-24T20:58:55.520Z,43.70
2022-12-24T21:01:48.407Z,43.72
2022-12-24T21:04:15.922Z,42.28
2022-12-24T21:06:43.365Z,45.70
2022-12-24T21:09:10.949Z,43.47
2022-12-24T21:11:50.111Z,44.63
2022-12-24T21:14:21.494Z,40.95
2022-12-24T21:16:50.321Z,39.63
2022-12-24T21:19:26.637Z,45.25
2022-12-24T21:24:27.351Z,51.63
2022-12-24T21:26:58.478Z,51.15
2022-12-24T21:29:31.169Z,52.50
2022-12-24T21:31:58.984Z,54.67
2022-12-24T21:34:29.802Z,53.78
2022-12-24T21:37:00.299Z,60.33
2022-12-24T21:39:27.756Z,71.07
2022-12-24T21:41:55.054Z,53.90
2022-12-24T21:44:25.305Z,66.68
2022-12-24T21:46:53.135Z,59.13
2022-12-24T21:49:39.610Z,56.15
2022-12-24T21:52:07.006Z,52.97
2022-12-24T21:54:35.114Z,48.53
2022-12-24T21:57:23.952Z,50.20
2022-12-24T21:59:53.302Z,51.97
2022-12-24T22:02:26.559Z,50.50
2022-12-24T22:04:54.280Z,49.85
2022-12-24T22:07:46.183Z,51.75
2022-12-24T22:10:33.080Z,53.85
2022-12-24T22:15:27.975Z,52.67
2022-12-24T22:17:55.370Z,53.28
2022-12-24T22:20:22.756Z,55.90
2022-12-24T22:22:50.071Z,65.85
2022-12-24T22:25:17.577Z,63.15
2022-12-24T22:27:45.083Z,61.45
2022-12-24T22:30:13.219Z,57.28
2022-12-24T22:32:40.416Z,58.03
2022-12-24T22:35:08.077Z,55.25
2022-12-24T22:37:35.412Z,57.65
2022-12-24T22:40:11.930Z,56.03
2022-12-24T22:42:40.964Z,53.33
2022-12-24T22:45:09.649Z,53.42
2022-12-24T22:47:36.953Z,54.53
2022-12-24T22:50:05.084Z,53.38
2022-12-24T22:52:33.989Z,51.80
2022-12-24T22:55:02.065Z,51.22
2022-12-24T22:57:29.473Z,48.05
2022-12-24T22:59:56.724Z,48.58
2022-12-24T23:02:28.400Z,49.42
2022-12-24T23:04:56.935Z,51.53
2022-12-24T23:07:24.765Z,51.70
2022-12-24T23:09:52.227Z,51.20
2022-12-24T23:12:39.454Z,51.80
2022-12-24T23:15:07.476Z,49.38
2022-12-24T23:17:35.414Z,49.28
2022-12-24T23:20:05.891Z,49.35
2022-12-24T23:22:33.113Z,49.42
2022-12-24T23:25:00.845Z,46.78
2022-12-24T23:27:28.149Z,47.97
2022-12-24T23:29:56.106Z,43.72
2022-12-24T23:32:23.644Z,43.92
2022-12-24T23:34:51.231Z,44.22
2022-12-24T23:37:19.288Z,42.28
2022-12-24T23:39:50.257Z,39.58
2022-12-24T23:42:18.142Z,39.47
2022-12-24T23:44:45.825Z,38.33
2022-12-24T23:47:15.725Z,36.58
2022-12-24T23:49:46.430Z,36.88
2022-12-24T23:52:13.915Z,37.30
2022-12-24T23:54:46.512Z,36.38
2022-12-24T23:57:14.094Z,36.25
2022-12-24T23:59:41.395Z,36.22
